Pudino, Russia
Current Conditions -  °F | °C
As of 11:30 AM on Wednesday 22 Oct 2014 (Local Time) from UNNT Reporting Station
Overcast Overcast  
Wind Chill: 23°   Ceiling: 2100
Heat Index: 32°   Visibility: 6mi
Dew Point: 23°   Wind: 11mph
Humidity: 69%   Direction: 230°SW
Pressure: 30.15"   Gusts: NA
Location:  57.57°N, 79.44°E
Report Text: UNNT 220430Z 23005MPS 9999 OVC021 M00/M05 Q1021 2509007016090070 NOSIG RMK QFE756/1008
Loading
Personal Weather Stations






























Interactive Weather Map
Tropical Storm Tracking
New forecast layout! Learn more

10-Day Weather Forecast

Advertisements
Track Severe Weather on mobile